createdAt,value
2022-12-18T00:00:35.031Z,1024.70
2022-12-18T00:01:35.101Z,1024.70
2022-12-18T00:02:35.029Z,1024.72
2022-12-18T00:03:35.116Z,1024.69
2022-12-18T00:04:34.822Z,1024.71
2022-12-18T00:05:34.765Z,1024.71
2022-12-18T00:06:34.736Z,1024.73
2022-12-18T00:07:34.671Z,1024.81
2022-12-18T00:08:34.608Z,1024.79
2022-12-18T00:09:39.373Z,1024.87
2022-12-18T00:10:34.495Z,1024.90
2022-12-18T00:11:34.451Z,1024.94
2022-12-18T00:12:34.388Z,1024.94
2022-12-18T00:13:34.341Z,1024.95
2022-12-18T00:14:34.283Z,1024.96
2022-12-18T00:15:34.232Z,1024.99
2022-12-18T00:16:34.231Z,1025.00
2022-12-18T00:17:34.126Z,1024.89
2022-12-18T00:18:34.072Z,1024.96
2022-12-18T00:19:34.016Z,1024.93
2022-12-18T00:20:33.961Z,1024.90
2022-12-18T20:43:46.236Z,1018.84
2022-12-18T20:44:46.070Z,1018.82
2022-12-18T20:45:46.065Z,1018.82
2022-12-18T20:46:45.956Z,1018.84
2022-12-18T20:47:45.899Z,1018.81
2022-12-18T20:48:45.847Z,1018.84
2022-12-18T20:49:45.851Z,1018.79
2022-12-18T20:50:45.742Z,1018.83
2022-12-18T20:51:45.691Z,1018.85
2022-12-18T20:52:45.639Z,1018.72
2022-12-18T20:53:45.865Z,1018.79
2022-12-18T20:54:45.535Z,1018.82
2022-12-18T20:55:45.484Z,1018.86
2022-12-18T20:56:45.434Z,1018.80
2022-12-18T20:57:45.381Z,1018.86
2022-12-18T20:58:45.334Z,1018.89
2022-12-18T20:59:48.291Z,1018.91
2022-12-18T21:00:45.231Z,1018.88
2022-12-18T21:01:48.938Z,1018.87
2022-12-18T21:02:45.319Z,1018.90
2022-12-18T21:03:45.132Z,1018.86
2022-12-18T21:04:45.032Z,1018.88
2022-12-18T21:05:44.980Z,1018.86
2022-12-18T21:06:49.618Z,1018.79
2022-12-18T21:07:44.881Z,1018.79
2022-12-18T21:08:44.834Z,1018.85
2022-12-18T21:09:44.783Z,1018.87
2022-12-18T21:10:44.740Z,1018.87
2022-12-18T21:11:44.682Z,1018.87
2022-12-18T21:13:04.606Z,1018.84
2022-12-18T21:13:44.583Z,1018.76
2022-12-18T21:14:44.534Z,1018.85
2022-12-18T21:15:44.600Z,1018.81
2022-12-18T21:16:44.462Z,1018.83
2022-12-18T21:17:45.381Z,1018.84
2022-12-18T21:18:44.339Z,1018.80
2022-12-18T21:19:44.290Z,1018.86
2022-12-18T21:20:44.239Z,1018.83
2022-12-18T21:21:44.188Z,1018.87
2022-12-18T21:22:44.142Z,1018.87
2022-12-18T21:23:44.094Z,1018.89
2022-12-18T21:24:44.049Z,1018.89
2022-12-18T21:25:43.991Z,1018.94
2022-12-18T21:26:46.067Z,1018.94
2022-12-18T21:27:43.895Z,1018.96
2022-12-18T21:28:43.845Z,1018.99
2022-12-18T21:29:43.798Z,1019.00
2022-12-18T21:30:43.819Z,1018.93
2022-12-18T21:31:43.816Z,1018.94
2022-12-18T21:32:43.651Z,1018.89
2022-12-18T21:33:43.603Z,1018.86
2022-12-18T21:34:47.970Z,1018.90
2022-12-18T21:35:43.502Z,1018.88
2022-12-18T21:36:43.457Z,1018.87
2022-12-18T21:37:43.403Z,1018.92
2022-12-18T21:38:43.357Z,1018.97
2022-12-18T21:39:43.310Z,1018.98
2022-12-18T21:40:43.275Z,1018.89
2022-12-18T21:41:43.209Z,1018.89
2022-12-18T21:42:43.163Z,1018.90
2022-12-18T21:43:43.111Z,1018.91
2022-12-18T21:44:43.065Z,1018.89
2022-12-18T21:45:43.052Z,1018.89
2022-12-18T21:46:42.969Z,1018.85
2022-12-18T21:47:43.028Z,1018.81
2022-12-18T21:48:42.867Z,1018.78
2022-12-18T21:49:42.817Z,1018.82
2022-12-18T21:50:42.772Z,1018.82
2022-12-18T21:51:42.724Z,1018.79
2022-12-18T21:52:42.673Z,1018.77
2022-12-18T21:53:42.620Z,1018.77
2022-12-18T21:54:42.573Z,1018.81
2022-12-18T21:55:42.525Z,1018.80
2022-12-18T21:56:42.476Z,1018.74
2022-12-18T21:57:42.426Z,1018.78
2022-12-18T21:58:56.759Z,1018.70
2022-12-18T21:59:42.349Z,1018.64
2022-12-18T22:00:46.979Z,1018.64
2022-12-18T22:01:42.402Z,1018.67
2022-12-18T22:02:42.368Z,1018.62
2022-12-18T22:03:42.413Z,1018.63
2022-12-18T22:04:42.085Z,1018.55
2022-12-18T22:05:42.034Z,1018.60
2022-12-18T22:06:41.988Z,1018.53
2022-12-18T22:07:41.937Z,1018.54
2022-12-18T22:08:43.722Z,1018.52
2022-12-18T22:09:41.842Z,1018.49
2022-12-18T22:10:41.794Z,1018.40
2022-12-18T22:11:41.750Z,1018.43
2022-12-18T22:12:43.780Z,1018.38
2022-12-18T22:13:41.646Z,1018.38
2022-12-18T22:14:41.597Z,1018.37
2022-12-18T22:15:41.621Z,1018.36
2022-12-18T22:16:41.504Z,1018.28
2022-12-18T22:17:41.447Z,1018.32
2022-12-18T22:18:41.403Z,1018.31
2022-12-18T22:19:43.217Z,1018.32
2022-12-18T22:20:41.304Z,1018.23
2022-12-18T22:21:41.253Z,1018.27
2022-12-18T22:22:41.208Z,1018.22
2022-12-18T22:23:41.155Z,1018.19
2022-12-18T22:24:41.107Z,1018.19
2022-12-18T22:25:41.057Z,1018.15
2022-12-18T22:26:41.012Z,1018.16
2022-12-18T22:27:40.967Z,1018.15
2022-12-18T22:28:40.910Z,1018.17
2022-12-18T22:29:40.858Z,1018.15
2022-12-18T22:30:40.916Z,1018.13
2022-12-18T22:31:40.803Z,1018.14
2022-12-18T22:32:40.715Z,1018.07
2022-12-18T22:33:40.668Z,1018.14
2022-12-18T22:34:40.622Z,1018.10
2022-12-18T22:35:40.682Z,1018.14
2022-12-18T22:36:40.519Z,1018.11
2022-12-18T22:37:40.471Z,1018.15
2022-12-18T22:38:40.421Z,1018.08
2022-12-18T22:39:40.377Z,1018.07
2022-12-18T22:40:40.330Z,1018.05
2022-12-18T22:41:40.270Z,1018.03
2022-12-18T22:42:40.225Z,1018.04
2022-12-18T22:43:40.180Z,1018.03
2022-12-18T22:44:40.126Z,1018.05
2022-12-18T22:45:40.077Z,1017.99
2022-12-18T22:46:40.086Z,1018.02
2022-12-18T22:47:39.978Z,1018.00
2022-12-18T22:48:39.932Z,1017.97
2022-12-18T22:49:39.879Z,1017.96
2022-12-18T22:50:39.833Z,1017.96
2022-12-18T22:51:39.898Z,1017.94
2022-12-18T22:52:39.735Z,1017.94
2022-12-18T22:53:39.687Z,1017.88
2022-12-18T22:54:39.638Z,1017.92
2022-12-18T22:55:39.589Z,1017.96
2022-12-18T22:56:39.538Z,1017.92
2022-12-18T22:57:39.488Z,1017.93
2022-12-18T22:58:39.442Z,1017.85
2022-12-18T22:59:39.391Z,1017.84
2022-12-18T23:00:39.342Z,1017.86
2022-12-18T23:01:39.393Z,1017.88
2022-12-18T23:02:39.467Z,1017.91
2022-12-18T23:03:39.261Z,1017.89
2022-12-18T23:04:39.146Z,1017.84
2022-12-18T23:05:39.099Z,1017.79
2022-12-18T23:06:39.049Z,1017.80
2022-12-18T23:07:39.113Z,1017.76
2022-12-18T23:08:38.953Z,1017.77
2022-12-18T23:09:38.901Z,1017.79
2022-12-18T23:10:38.860Z,1017.75
2022-12-18T23:11:38.830Z,1017.77
2022-12-18T23:12:38.761Z,1017.76
2022-12-18T23:13:38.751Z,1017.73
2022-12-18T23:14:38.684Z,1017.68
2022-12-18T23:15:38.655Z,1017.64
2022-12-18T23:16:38.562Z,1017.60
